»·PEaware :: N149CD KSEE-KIPL

N149CD :: KSEE-KIPL

FLIGHT INFORMATION

Flight Status: Arrived
Operator: Privately registered:
United States
More flights under this callsign
Pilot: Nathan E. (30132)
Aircraft: CESSNA 172 SKYHAWK
(C172)
More flights by this aircraft type
Origin: KSEE Gillespie
United States
Destination: KIPL Imperial Co
United States
More flights between these airports :: More routes between these airports
Route: +MZB1 MZB V66 IPL
File this flight plan on PilotEdge
Remarks:
Altitude:
(Current/Filed)
9,000ft
Speed:
(Current/Filed)
110kts
Departed: 06-Nov-20 10:40 AM
Arrived: 06-Nov-20 11:35 AM
Distance/Time
Traveled:
70nm/0:54
Distance/Time
To Go:
Arrived

Flight Plot

Page will automatically refresh every two minutes.

Flight plan parsing failed; only flown route is shown


Map Options




Map Legend


Flown Route
Filed Route
Departure Airport
Arrival Airport
Navaid (VOR, NDB)
Fix

Horizontal Profiles

Position Reports

Time Latitude Longitude Heading Altitude Ground
Speed
06-Nov-20 10:15 32.824787 -116.969452 14 378ft 0kts
06-Nov-20 10:16 32.824788 -116.969452 14 378ft 0kts
06-Nov-20 10:17 32.824788 -116.969452 14 378ft 0kts
06-Nov-20 10:18 32.824788 -116.969452 14 378ft 0kts
06-Nov-20 10:19 32.824788 -116.969452 14 378ft 0kts
06-Nov-20 10:20 32.824788 -116.969452 14 378ft 0kts
06-Nov-20 10:21 32.824788 -116.969452 14 378ft 0kts
06-Nov-20 10:22 32.824788 -116.969452 14 378ft 0kts
06-Nov-20 10:23 32.824788 -116.969452 14 378ft 0kts
06-Nov-20 10:24 32.824788 -116.969452 14 378ft 0kts
06-Nov-20 10:25 32.824788 -116.969452 14 378ft 0kts
06-Nov-20 10:26 32.824788 -116.969452 14 378ft 0kts
06-Nov-20 10:27 32.824788 -116.969452 14 378ft 0kts
06-Nov-20 10:28 32.824788 -116.969452 14 378ft 0kts
06-Nov-20 10:29 32.824788 -116.969452 14 378ft 0kts
06-Nov-20 10:30 32.824788 -116.969452 14 378ft 0kts
06-Nov-20 10:31 32.824788 -116.969452 14 378ft 0kts
06-Nov-20 10:32 32.824788 -116.969452 14 378ft 0kts
06-Nov-20 10:33 32.824788 -116.969452 14 378ft 0kts
06-Nov-20 10:34 32.824788 -116.969452 14 378ft 0kts
06-Nov-20 10:35 32.824788 -116.969452 14 378ft 0kts
06-Nov-20 10:36 32.824537 -116.967153 86 384ft 0kts
06-Nov-20 10:37 32.824846 -116.965497 102 389ft 15kts
06-Nov-20 10:38 32.825916 -116.964370 328 393ft 0kts
06-Nov-20 10:39 32.827537 -116.970604 281 385ft 75kts
06-Nov-20 10:40 32.833218 -116.993843 317 1238ft 73kts
06-Nov-20 10:41 32.842642 -116.979773 135 2088ft 83kts
06-Nov-20 10:42 32.821106 -116.973308 175 2937ft 81kts
06-Nov-20 10:43 32.798657 -116.968687 174 3747ft 83kts
06-Nov-20 10:44 32.778644 -116.970851 258 4523ft 71kts
06-Nov-20 10:45 32.778162 -116.993638 268 5266ft 69kts
06-Nov-20 10:46 32.782998 -117.013881 337 5983ft 79kts
06-Nov-20 10:47 32.796792 -116.990418 95 6558ft 102kts
06-Nov-20 10:48 32.794662 -116.957567 95 7192ft 100kts
06-Nov-20 10:49 32.792526 -116.924278 95 7792ft 102kts
06-Nov-20 10:50 32.790391 -116.890444 94 8381ft 103kts
06-Nov-20 10:51 32.788230 -116.856052 95 8942ft 105kts
06-Nov-20 10:52 32.785598 -116.815391 95 9009ft 134kts
06-Nov-20 10:53 32.782771 -116.771429 95 9008ft 134kts
06-Nov-20 10:54 32.779927 -116.727023 95 9008ft 134kts
06-Nov-20 10:55 32.777070 -116.682603 95 9008ft 134kts
06-Nov-20 10:56 32.774202 -116.638236 95 9007ft 134kts
06-Nov-20 10:57 32.772788 -116.593832 92 9007ft 134kts
06-Nov-20 10:58 32.771953 -116.549312 92 9008ft 134kts
06-Nov-20 10:59 32.771159 -116.505682 93 9118ft 132kts
06-Nov-20 11:00 32.770316 -116.461304 93 9118ft 134kts
06-Nov-20 11:01 32.769477 -116.416847 93 9118ft 134kts
06-Nov-20 11:02 32.768627 -116.372461 94 9110ft 134kts
06-Nov-20 11:03 32.767766 -116.328126 95 9090ft 133kts
06-Nov-20 11:04 32.766945 -116.284702 99 9074ft 128kts
06-Nov-20 11:05 32.766491 -116.242872 98 9060ft 126kts
06-Nov-20 11:06 32.765323 -116.200856 100 9045ft 127kts
06-Nov-20 11:07 32.764350 -116.159104 100 9030ft 126kts
06-Nov-20 11:08 32.763415 -116.117613 100 9028ft 125kts
06-Nov-20 11:09 32.762514 -116.076150 100 9028ft 125kts
06-Nov-20 11:10 32.761595 -116.034900 100 8695ft 125kts
06-Nov-20 11:11 32.760679 -115.993661 100 8203ft 124kts
06-Nov-20 11:12 32.759758 -115.952767 100 7710ft 123kts
06-Nov-20 11:13 32.758839 -115.912666 99 7220ft 120kts
06-Nov-20 11:14 32.757918 -115.873033 99 6728ft 119kts
06-Nov-20 11:16 32.757005 -115.833633 99 6235ft 118kts
06-Nov-20 11:17 32.756078 -115.794698 98 5743ft 117kts
06-Nov-20 11:18 32.755146 -115.756133 98 5251ft 116kts
06-Nov-20 11:19 32.754206 -115.717802 98 4756ft 115kts
06-Nov-20 11:20 32.753267 -115.679886 97 4264ft 114kts
06-Nov-20 11:21 32.752319 -115.642186 97 3769ft 113kts
06-Nov-20 11:22 32.751366 -115.604806 96 3252ft 114kts
06-Nov-20 11:23 32.750461 -115.567826 95 2875ft 106kts
06-Nov-20 11:24 32.749094 -115.532288 98 3004ft 109kts
06-Nov-20 11:25 32.744374 -115.496647 104 2947ft 106kts
06-Nov-20 11:26 32.746327 -115.460389 87 2447ft 113kts
06-Nov-20 11:27 32.755143 -115.426972 20 1941ft 118kts
06-Nov-20 11:28 32.766417 -115.452554 243 1741ft 116kts
06-Nov-20 11:29 32.753927 -115.488548 245 1742ft 119kts
06-Nov-20 11:29 32.751838 -115.519743 313 1739ft 122kts
06-Nov-20 11:31 32.786428 -115.537748 336 1299ft 117kts
06-Nov-20 11:31 32.812491 -115.546224 346 1011ft 117kts
06-Nov-20 11:33 32.846962 -115.566165 330 1016ft 99kts
06-Nov-20 11:33 32.849859 -115.582015 190 330ft 71kts
06-Nov-20 11:35 32.839192 -115.576226 90 -45ft 11kts
06-Nov-20 11:35 32.839448 -115.575565 3 -46ft 0kts

Navigation Log

Ident Type
Flight plan parsing failed, navigation log unavailable